Kahuta Weather



Kahuta's Current Weather

Temprature 24.23o few clouds

few clouds

Rain: 0 %

Min Temprature24o
Max Temprature24.44o
Humidity53
Wind Speed5.7 m/h
Sun Rise06:12:49
Sun Set17:30:15
Current Time: 18-Oct-2019 16:27:56
Lat/Lon: 33.59, 73.39




Kahuta's Geo Location



Kahuta's Weather Forecast

Time Overall Temp Min Temp Max Temp Humidity Wind Speed Rain
18-Oct-2019 (Fri)
17:00:00 scattered clouds 21.820 21.820 25.460 43 4.71 m/h 0 %
20:00:00 clear sky 19.880 19.880 22.610 50 2.94 m/h 0 %
23:00:00 scattered clouds 19.840 19.840 21.658 53 2.29 m/h 0 %
19-Oct-2019 (Sat)
02:00:00 broken clouds 19.500 19.500 20.408 56 1.59 m/h 0 %
05:00:00 overcast clouds 20.543 20.543 20.543 47 1.83 m/h 0 %
08:00:00 broken clouds 22.761 22.761 22.761 43 1.39 m/h 0 %
11:00:00 scattered clouds 27.350 27.350 27.350 30 3.08 m/h 0 %
14:00:00 broken clouds 29.336 29.336 29.336 24 3.07 m/h 0 %
17:00:00 scattered clouds 26.632 26.632 26.632 30 3.52 m/h 0 %
20:00:00 clear sky 23.078 23.078 23.078 38 2.66 m/h 0 %
23:00:00 clear sky 21.117 21.117 21.117 42 1.4 m/h 0 %
20-Oct-2019 (Sun)
02:00:00 clear sky 20.047 20.047 20.047 42 1.41 m/h 0 %
05:00:00 clear sky 18.674 18.674 18.674 44 0.84 m/h 0 %
08:00:00 clear sky 22.422 22.422 22.422 34 1.02 m/h 0 %
11:00:00 clear sky 27.470 27.470 27.470 25 2.42 m/h 0 %
14:00:00 scattered clouds 29.792 29.792 29.792 21 3.96 m/h 0 %
17:00:00 broken clouds 26.498 26.498 26.498 30 3.32 m/h 0 %
20:00:00 overcast clouds 23.972 23.972 23.972 32 2.6 m/h 0 %
23:00:00 broken clouds 21.467 21.467 21.467 36 1.42 m/h 0 %
21-Oct-2019 (Mon)
02:00:00 clear sky 19.840 19.840 19.840 38 1.33 m/h 0 %
05:00:00 clear sky 19.231 19.231 19.231 37 1.92 m/h 0 %
08:00:00 clear sky 22.769 22.769 22.769 31 1.9 m/h 0 %
11:00:00 clear sky 28.057 28.057 28.057 22 1.63 m/h 0 %
14:00:00 clear sky 30.115 30.115 30.115 19 3.2 m/h 0 %
17:00:00 clear sky 26.984 26.984 26.984 28 3.06 m/h 0 %
20:00:00 clear sky 24.144 24.144 24.144 31 2.81 m/h 0 %
23:00:00 clear sky 21.950 21.950 21.950 34 2.12 m/h 0 %
22-Oct-2019 (Tue)
02:00:00 clear sky 20.616 20.616 20.616 35 2.19 m/h 0 %
05:00:00 clear sky 19.179 19.179 19.179 37 1.62 m/h 0 %
08:00:00 clear sky 22.942 22.942 22.942 29 1.1 m/h 0 %
11:00:00 clear sky 27.979 27.979 27.979 22 2.55 m/h 0 %
14:00:00 clear sky 29.989 29.989 29.989 20 3.54 m/h 0 %
17:00:00 scattered clouds 26.652 26.652 26.652 29 2.91 m/h 0 %
20:00:00 overcast clouds 23.950 23.950 23.950 32 2.2 m/h 0 %
23:00:00 overcast clouds 22.889 22.889 22.889 31 2.19 m/h 0 %
23-Oct-2019 (Wed)
02:00:00 overcast clouds 22.486 22.486 22.486 30 2.43 m/h 0 %
05:00:00 overcast clouds 20.907 20.907 20.907 34 0.62 m/h 0 %
08:00:00 overcast clouds 23.799 23.799 23.799 27 1.31 m/h 0 %
11:00:00 overcast clouds 28.005 28.005 28.005 21 0.43 m/h 0 %
14:00:00 overcast clouds 30.239 30.239 30.239 17 0.9 m/h 0 %

Famous Cities (61)